• Join FlightAware (Why Join?)
  • Login
  • US Flag 
05:44AM EDT


 

Airport Tracker/Info


-or-


 

Live Flight TrackerFlight Track Log ✈ N785JP ✈ 18-Oct-2013 ✈ KSAV - KSYR

Flight Track Log - Related Links

Times and Time Zones

All times are in EDT time to prevent confusion due to time zone crossing. See the N785JP flight status page for this flight to view local times or setup timezone preferences in your user account.

Time Position Orientation Groundspeed Altitude Reporting Facility
EDT Latitude Longitude Course Direction KTS MPH feet Rate Location/Type
01:40PM 32.2658 -81.1900 North 167 192 4,000  Level Jacksonville Center
01:41PM 32.3117 -81.1842 North 172 198 5,400 1,260 Climbing Jacksonville Center
01:42PM 32.3617 -81.1808 North 172 198 6,600 1,200 Climbing Jacksonville Center
01:43PM 32.4117 -81.1775 North 177 204 7,900 1,200 Climbing Jacksonville Center
01:44PM 32.4989 -81.0535 North  Level Estimated
01:44PM 32.4617 -81.1739 North 177 204 9,100  Level Jacksonville Center
01:45PM 32.5608 -81.0285 North  Level Estimated
01:45PM 32.5139 -81.1706 North 177 204 10,100  Level Jacksonville Center
01:46PM 32.5639 -81.1672 North 182 209 11,300 1,260 Climbing Jacksonville Center
01:47PM 32.6181 -81.1611 North 182 209 12,700 1,260 Climbing Jacksonville Center
01:48PM 32.6642 -81.1578 North 176 203 13,800 1,080 Climbing Jacksonville Center
01:49PM 32.7203 -81.1494 North 176 203 14,900 1,020 Climbing Jacksonville Center
01:50PM 32.7725 -81.1458 North 176 203 15,900 960 Climbing Jacksonville Center
01:51PM 32.8267 -81.1422 North 176 203 16,900 900 Climbing Jacksonville Center
01:52PM 32.8767 -81.1389 North 181 208 17,800 840 Climbing Jacksonville Center
01:53PM 32.9308 -81.1328 North 181 208 18,600 840 Climbing Jacksonville Center
01:54PM 32.9831 -81.1294 North 181 208 19,500 720 Climbing Jacksonville Center
01:55PM 33.0372 -81.1258 North 181 208 20,100 480 Climbing Jacksonville Center
01:56PM 33.0956 -81.1197 North 191 220 20,500 420 Climbing Jacksonville Center
01:57PM 33.1561 -81.1136 North 200 230 21,000 240 Climbing Jacksonville Center
01:58PM 33.2186 -81.1097 North 218 251 21,000  Level Jacksonville Center
01:59PM 33.2853 -81.1036 North 228 262 21,000  Level Jacksonville Center
02:00PM 33.3500 -81.0997 North 235 270 21,000  Level Jacksonville Center
02:01PM 33.4186 -81.0933 North 235 270 21,000  Level Jacksonville Center
02:02PM 33.4875 -81.0869 North 235 270 21,000  Level Jacksonville Center
02:03PM 33.5522 -81.0806 North 235 270 21,000  Level Jacksonville Center
02:04PM 33.6231 -81.0742 North 240 276 21,000  Level Jacksonville Center
02:05PM 33.6917 -81.0678 North 240 276 21,000  Level Jacksonville Center
02:06PM 33.7606 -81.0614 North 240 276 21,000  Level Jacksonville Center
02:07PM 33.8294 -81.0575 North 240 276 21,000  Level Jacksonville Center
02:08PM 33.8958 -81.0386 13° North 240 276 21,000  Level Jacksonville Center
02:09PM 33.9642 -81.0047 22° Northeast 240 276 21,000  Level Jacksonville Center
02:10PM 34.0306 -80.9731 22° Northeast 247 284 21,000  Level Jacksonville Center
02:11PM 34.1008 -80.9389 22° Northeast 252 290 21,000  Level Jacksonville Center
02:12PM 34.1672 -80.9075 21° North 252 290 21,000  Level Jacksonville Center
02:14PM 34.2953 -80.8406 23° Northeast 255 293 21,000  Level Atlanta Center
02:15PM 34.3717 -80.8125 17° North 250 288 21,000  Level Atlanta Center
02:16PM 34.4333 -80.7772 25° Northeast 256 295 21,000  Level Atlanta Center
02:17PM 34.5036 -80.7444 21° North 256 295 21,000  Level Atlanta Center
02:18PM 34.5694 -80.7117 22° Northeast 256 295 21,000  Level Atlanta Center
02:19PM 34.6394 -80.6811 20° North 261 300 21,000  Level Atlanta Center
02:20PM 34.7053 -80.6456 24° Northeast 255 293 21,000  Level Atlanta Center
02:21PM 34.7733 -80.6150 20° North 255 293 21,000  Level Atlanta Center
02:22PM 34.8392 -80.5819 22° Northeast 255 293 21,000  Level Atlanta Center
02:23PM 34.9133 -80.5458 22° Northeast 255 293 21,000  Level Atlanta Center
02:24PM 34.9811 -80.5100 23° Northeast 250 288 21,000  Level Atlanta Center
02:25PM 35.0469 -80.4767 23° Northeast 255 293 21,000  Level Atlanta Center
02:26PM 35.1167 -80.4408 23° Northeast 255 293 21,000  Level Atlanta Center
02:27PM 35.1867 -80.4072 21° North 255 293 21,000  Level Atlanta Center
02:28PM 35.2525 -80.3739 22° Northeast 255 293 21,000  Level Atlanta Center
02:29PM 35.3225 -80.3403 21° North 260 299 21,000  Level Atlanta Center
02:30PM 35.3903 -80.3067 22° Northeast 260 299 21,000  Level Atlanta Center
02:31PM 35.4581 -80.2703 24° Northeast 260 299 21,000  Level Atlanta Center
02:32PM 35.5281 -80.2367 21° North 260 299 21,000  Level Atlanta Center
02:33PM 35.5956 -80.2003 24° Northeast 265 305 21,000  Level Atlanta Center
02:34PM 35.6633 -80.1664 22° Northeast 265 305 21,000  Level Atlanta Center
02:35PM 35.7331 -80.1272 25° Northeast 265 305 21,000  Level Atlanta Center
02:37PM 35.8697 -80.0700 19° North 272 313 21,000  Level Washington Center
02:38PM 35.9403 -80.0303 25° Northeast 272 313 21,000  Level Washington Center
02:39PM 36.0061 -79.9981 22° Northeast 264 304 21,000  Level Washington Center
02:40PM 36.0781 -79.9686 18° North 264 304 21,000  Level Washington Center
02:41PM 36.1481 -79.9417 17° North 258 297 21,000  Level Washington Center
02:42PM 36.2200 -79.9122 18° North 258 297 21,000  Level Washington Center
02:43PM 36.2897 -79.8853 17° North 258 297 21,000  Level Washington Center
02:44PM 36.3617 -79.8581 17° North 263 303 21,000  Level Washington Center
02:45PM 36.4317 -79.8283 19° North 263 303 21,000  Level Washington Center
02:46PM 36.4994 -79.8011 18° North 263 303 21,000  Level Washington Center
02:47PM 36.5733 -79.7742 16° North 263 303 21,000  Level Washington Center
02:48PM 36.6494 -79.7444 17° North 263 303 21,000  Level Washington Center
02:49PM 36.7214 -79.7172 17° North 263 303 21,000  Level Washington Center
02:50PM 36.7911 -79.6900 17° North 263 303 21,000  Level Washington Center
02:51PM 36.8608 -79.6650 16° North 263 303 21,000  Level Washington Center
02:52PM 36.9264 -79.6400 17° North 268 308 21,000  Level Washington Center
02:53PM 36.9919 -79.6122 19° North 268 308 21,000  Level Washington Center
02:54PM 37.0639 -79.5847 17° North 268 308 21,000 -60 Level Washington Center
02:55PM 37.1336 -79.5597 16° North 268 308 20,900  Descending Washington Center
02:56PM 37.2117 -79.5272 18° North 268 308 21,000  Climbing Washington Center
02:57PM 37.2817 -79.4994 18° North 268 308 21,000  Level Washington Center
02:58PM 37.3514 -79.4717 18° North 268 308 21,000  Level Washington Center
02:59PM 37.4147 -79.4436 19° North 268 308 21,000  Level Washington Center
03:00PM 37.4950 -79.4161 15° North 273 314 21,000  Level Washington Center
03:01PM 37.5583 -79.3906 18° North 268 308 21,000  Level Washington Center
03:02PM 37.6322 -79.3600 18° North 263 303 21,000  Level Washington Center
03:03PM 37.6956 -79.3344 18° North 263 303 21,000  Level Washington Center
03:04PM 37.7717 -79.3067 16° North 263 303 21,000  Level Washington Center
03:05PM 37.8392 -79.2811 17° North 263 303 21,000  Level Washington Center
03:06PM 37.9089 -79.2528 18° North 263 303 21,000  Level Washington Center
03:07PM 37.9850 -79.2222 18° North 263 303 21,000  Level Washington Center
03:08PM 38.0525 -79.1967 17° North 263 303 21,000  Level Washington Center
03:09PM 38.1242 -79.1683 17° North 263 303 21,000  Level Washington Center
03:10PM 38.1917 -79.1400 18° North 263 303 21,000  Level Washington Center
03:11PM 38.2550 -79.1164 16° North 263 303 21,000  Level Washington Center
03:12PM 38.3267 -79.0881 17° North 263 303 21,000  Level Washington Center
03:13PM 38.3964 -79.0594 18° North 263 303 21,000  Level Washington Center
03:14PM 38.4681 -79.0283 19° North 268 308 21,000  Level Washington Center
03:15PM 38.5358 -78.9997 18° North 262 302 21,000  Level Washington Center
03:16PM 38.6053 -78.9683 19° North 257 296 21,000  Level Washington Center
03:17PM 38.6772 -78.9397 17° North 257 296 21,000  Level Washington Center
03:18PM 38.7489 -78.9111 17° North 262 302 21,000  Level Washington Center
03:19PM 38.8206 -78.8797 19° North 267 307 21,000  Level Washington Center
03:20PM 38.8881 -78.8533 17° North 262 302 21,000  Level Washington Center
03:21PM 38.9597 -78.8244 17° North 262 302 21,000  Level Washington Center
03:22PM 39.0292 -78.7956 18° North 262 302 21,000  Level Washington Center
03:23PM 39.1031 -78.7639 18° North 262 302 21,000  Level Washington Center
03:24PM 39.1725 -78.7347 18° North 262 302 21,000  Level Washington Center
03:25PM 39.2400 -78.7056 19° North 257 296 21,000  Level Washington Center
03:26PM 39.3117 -78.6792 16° North 257 296 21,000  Level Washington Center
03:27PM 39.3789 -78.6525 17° North 252 290 21,000  Level Washington Center
03:28PM 39.4464 -78.6203 20° North 252 290 21,000  Level Washington Center
03:29PM 39.5158 -78.5911 18° North 252 290 21,000  Level Washington Center
03:31PM 39.6500 -78.5375 17° North 261 300 21,000  Level Cleveland Center
03:32PM 39.7178 -78.5092 18° North 258 297 21,000  Level Cleveland Center
03:33PM 39.7953 -78.4764 18° North 262 302 21,000  Level Cleveland Center
03:34PM 39.8644 -78.4475 18° North 262 302 21,000  Level Cleveland Center
03:35PM 39.9339 -78.4175 18° North 265 305 21,000  Level Cleveland Center
03:36PM 40.0033 -78.3875 18° North 265 305 21,000  Level Cleveland Center
03:38PM 40.0864 -78.3522 18° North 265 305 21,000  Level Cleveland Center
03:39PM 40.1564 -78.3217 18° North 266 306 21,000  Level Cleveland Center
03:40PM 40.2269 -78.2928 17° North 267 307 21,000  Level Cleveland Center
03:41PM 40.2961 -78.2625 18° North 266 306 21,000  Level Cleveland Center
03:42PM 40.3658 -78.2325 18° North 265 305 21,000  Level Cleveland Center
03:43PM 40.4489 -78.1961 18° North 265 305 21,000  Level Cleveland Center
03:44PM 40.5197 -78.1658 18° North 268 308 21,000  Level Cleveland Center
03:45PM 40.5886 -78.1361 18° North 264 304 21,000  Level Cleveland Center
03:46PM 40.6583 -78.1047 19° North 267 307 21,000  Level Cleveland Center
03:47PM 40.7283 -78.0753 18° North 267 307 21,000  Level Cleveland Center
03:48PM 40.8108 -78.0394 18° North 264 304 21,000  Level Cleveland Center
03:49PM 40.8789 -78.0081 19° North 263 303 21,000  Level Cleveland Center
03:50PM 40.9461 -77.9708 23° Northeast 266 306 21,000  Level Cleveland Center
03:51PM 41.0128 -77.9144 33° Northeast 285 328 21,000  Level Cleveland Center
03:52PM 41.0631 -77.8717 33° Northeast 282 325 21,000  Level New York Center
03:53PM 41.1267 -77.8175 33° Northeast 287 330 21,000  Level New York Center
03:54PM 41.1969 -77.7586 32° Northeast 287 330 21,000  Level New York Center
03:55PM 41.2628 -77.7047 32° Northeast 287 330 21,000  Level New York Center
03:56PM 41.3261 -77.6531 31° Northeast 281 323 21,000  Level New York Center
03:57PM 41.3939 -77.5992 31° Northeast 276 318 21,000  Level New York Center
03:58PM 41.4594 -77.5422 33° Northeast 276 318 21,000  Level New York Center
03:59PM 41.5231 -77.4875 33° Northeast 276 318 21,000  Level New York Center
04:00PM 41.5908 -77.4306 32° Northeast 276 318 21,000  Level New York Center
04:01PM 41.6500 -77.3781 34° Northeast 276 318 21,000 -240 Level New York Center
04:02PM 41.7178 -77.3208 32° Northeast 276 318 20,600 -540 Descending New York Center
04:03PM 41.7875 -77.2639 31° Northeast 276 318 20,000 -780 Descending New York Center
04:04PM 41.8617 -77.2014 32° Northeast 289 333 19,100 -900 Descending New York Center
04:05PM 41.9339 -77.1386 33° Northeast 302 348 18,300 -900 Descending New York Center
04:06PM 42.0103 -77.0706 33° Northeast 302 348 17,400 -1,080 Descending New York Center
04:07PM 42.0844 -77.0078 32° Northeast 302 348 16,200 -900 Descending New York Center
04:08PM 42.1542 -76.9472 33° Northeast 302 348 15,600 -660 Descending New York Center
04:09PM 42.2217 -76.8892 32° Northeast 302 348 14,900 -720 Descending New York Center
04:10PM 42.2914 -76.8283 33° Northeast 297 342 14,200 -780 Descending New York Center
04:11PM 42.3589 -76.7700 33° Northeast 297 342 13,400 -720 Descending New York Center
04:12PM 42.4153 -76.7267 30° Northeast 287 330 12,900 -660 Descending Boston Center
04:12PM 42.4692 -76.6797 33° Northeast 291 335 12,300 -780 Descending Boston Center
04:13PM 42.5422 -76.6197 31° Northeast 276 318 11,600 -780 Descending Boston Center
04:14PM 42.6072 -76.5592 34° Northeast 261 300 10,700 -720 Descending Boston Center
04:15PM 42.6675 -76.5067 33° Northeast 264 304 10,100 -300 Descending Boston Center
04:17PM 42.7197 -76.4394 43° Northeast 263 303 10,100 -360 Level Boston Center
04:18PM 42.7794 -76.3472 49° Northeast 261 300 9,300 -780 Descending Boston Center
04:19PM 42.8317 -76.2769 45° Northeast 268 308 8,500 -720 Descending Boston Center
04:20PM 42.8758 -76.2086 49° Northeast 233 268 7,900 -840 Descending Boston Center
04:21PM 42.9172 -76.1517 45° Northeast 237 273 7,000 -1,080 Descending Boston Center
04:22PM 42.9631 -76.0864 46° Northeast 236 272 5,900 -1,080 Descending Boston Center
04:23PM 43.0050 -76.0150 51° Northeast 225 259 4,900 -960 Descending Boston Center
04:24PM 43.0261 -75.9367 70° East 217 250 4,000 -960 Descending Boston Center
04:25PM 43.0769 -75.9139 18° North 190 219 3,000 -720 Descending Boston Center
04:26PM 43.1136 -75.9444 329° Northwest 146 168 2,600 -540 Descending Boston Center
04:27PM 43.1122 -75.9900 268° West 110 127 2,000 -540 Descending Boston Center
04:28PM 43.1108 -76.0325 267° West 112 129 1,600 -540 Descending Boston Center
04:29PM 43.1094 -76.0781 268° West 117 135 1,000 -600 Descending Boston Center
04:31PM 43.1000 -76.1000 283° West  Level FlightAware Approximate
04:38PM 43.1112 -76.1063 283° West  Level Estimated
04:39PM 43.1112 -76.1063 283° West  Level Estimated
04:40PM 43.1112 -76.1063 283° West  Level Estimated
04:41PM 43.1112 -76.1063 283° West  Level Estimated
04:42PM 43.1112 -76.1063 283° West  Level Estimated
04:43PM 43.1112 -76.1063 283° West  Level Estimated
04:44PM 43.1112 -76.1063 283° West  Level Estimated